createdAt,value
2024-01-21T00:01:17.689Z,1.48
2024-01-21T00:03:46.230Z,2.75
2024-01-21T00:06:14.336Z,3.78
2024-01-21T00:08:42.298Z,3.10
2024-01-21T00:11:10.814Z,2.42
2024-01-21T00:13:38.939Z,1.23
2024-01-21T00:16:07.337Z,1.80
2024-01-21T00:18:35.689Z,5.50
2024-01-21T00:21:03.739Z,2.03
2024-01-21T00:23:31.740Z,1.62
2024-01-21T00:26:00.105Z,1.08
2024-01-21T00:28:28.791Z,1.75
2024-01-21T00:30:56.806Z,2.37
2024-01-21T00:33:25.185Z,4.37
2024-01-21T00:35:53.240Z,13.65
2024-01-21T00:38:21.349Z,4.12
2024-01-21T00:40:49.718Z,4.70
2024-01-21T00:43:17.708Z,2.95
2024-01-21T00:45:45.723Z,1.80
2024-01-21T00:48:14.194Z,1.45
2024-01-21T00:50:42.213Z,7.25
2024-01-21T00:53:10.648Z,6.28
2024-01-21T00:55:38.870Z,2.20
2024-01-21T00:58:06.785Z,3.05
2024-01-21T01:00:34.766Z,1.42
2024-01-21T01:03:03.343Z,4.43
2024-01-21T01:05:31.779Z,2.30
2024-01-21T01:07:59.790Z,4.37
2024-01-21T01:10:28.049Z,2.42
2024-01-21T01:12:57.140Z,1.85
2024-01-21T01:15:25.144Z,2.33
2024-01-21T01:17:53.606Z,2.45
2024-01-21T01:20:22.293Z,2.17
2024-01-21T01:22:50.390Z,3.53
2024-01-21T01:25:18.649Z,5.78
2024-01-21T01:27:46.776Z,1.17
2024-01-21T01:30:15.551Z,2.75
2024-01-21T01:32:43.823Z,3.83
2024-01-21T01:35:11.994Z,1.62
2024-01-21T01:37:39.882Z,2.75
2024-01-21T01:40:08.562Z,3.65
2024-01-21T01:42:37.093Z,2.12
2024-01-21T01:45:05.631Z,5.37
2024-01-21T01:47:34.565Z,9.23
2024-01-21T01:50:02.826Z,4.57
2024-01-21T01:52:30.802Z,3.40
2024-01-21T01:54:58.991Z,4.75
2024-01-21T01:57:27.704Z,2.95
2024-01-21T01:59:56.099Z,3.87
2024-01-21T02:02:24.778Z,3.50
2024-01-21T02:04:53.255Z,2.83
2024-01-21T02:07:21.416Z,2.05
2024-01-21T02:09:49.539Z,1.60
2024-01-21T02:12:19.559Z,4.05
2024-01-21T02:14:47.600Z,2.15
2024-01-21T02:17:15.527Z,8.10
2024-01-21T02:19:43.834Z,3.87
2024-01-21T02:22:11.873Z,3.25
2024-01-21T02:24:40.077Z,2.90
2024-01-21T02:27:08.346Z,3.85
2024-01-21T02:29:36.386Z,2.90
2024-01-21T02:32:05.364Z,4.25
2024-01-21T02:34:33.723Z,4.57
2024-01-21T02:37:01.729Z,3.92
2024-01-21T02:39:29.675Z,2.47
2024-01-21T02:41:57.847Z,2.25
2024-01-21T02:44:25.742Z,4.80
2024-01-21T02:46:53.649Z,4.68
2024-01-21T02:49:25.171Z,2.47
2024-01-21T02:51:53.315Z,6.25
2024-01-21T02:54:21.508Z,6.05
2024-01-21T02:56:49.597Z,1.55
2024-01-21T02:59:17.893Z,1.50
2024-01-21T03:01:46.444Z,2.50
2024-01-21T03:04:14.950Z,4.20
2024-01-21T03:06:43.772Z,2.12
2024-01-21T03:09:12.103Z,2.92
2024-01-21T03:11:40.023Z,5.28
2024-01-21T03:14:08.750Z,5.62
2024-01-21T03:16:37.244Z,3.12
2024-01-21T03:19:05.175Z,1.45
2024-01-21T03:21:33.213Z,3.00
2024-01-21T03:24:01.492Z,1.35
2024-01-21T03:26:29.537Z,1.77
2024-01-21T03:28:58.253Z,4.72
2024-01-21T03:31:26.670Z,2.70
2024-01-21T03:33:55.509Z,6.43
2024-01-21T03:36:23.627Z,1.23
2024-01-21T03:38:51.977Z,2.08
2024-01-21T03:41:20.894Z,1.00
2024-01-21T03:43:49.048Z,1.65
2024-01-21T03:46:18.242Z,1.45
2024-01-21T03:48:46.646Z,2.95
2024-01-21T03:51:15.275Z,1.83
2024-01-21T03:53:43.613Z,2.78
2024-01-21T03:56:19.424Z,2.78
2024-01-21T03:58:48.307Z,7.05
2024-01-21T04:01:16.450Z,2.05
2024-01-21T04:03:45.058Z,6.50
2024-01-21T04:06:13.161Z,3.55
2024-01-21T04:08:41.286Z,1.10
2024-01-21T04:11:09.612Z,4.03
2024-01-21T04:13:37.553Z,2.12
2024-01-21T04:16:05.789Z,3.08
2024-01-21T04:18:34.262Z,1.45
2024-01-21T04:21:03.049Z,2.72
2024-01-21T04:23:31.051Z,2.75
2024-01-21T04:26:00.781Z,5.12
2024-01-21T04:28:29.133Z,9.35
2024-01-21T04:30:57.860Z,8.82
2024-01-21T04:33:26.378Z,2.15
2024-01-21T04:35:54.967Z,7.20
2024-01-21T04:38:24.951Z,10.10
2024-01-21T04:40:56.062Z,3.58
2024-01-21T04:43:24.055Z,2.85
2024-01-21T04:45:52.161Z,3.28
2024-01-21T04:48:20.559Z,3.08
2024-01-21T04:50:48.642Z,5.18
2024-01-21T04:53:16.658Z,3.72
2024-01-21T04:55:44.903Z,2.80
2024-01-21T04:58:14.159Z,2.30
2024-01-21T05:00:42.187Z,1.90
2024-01-21T05:03:10.531Z,3.45
2024-01-21T05:05:38.528Z,5.45
2024-01-21T05:08:06.981Z,5.87
2024-01-21T05:10:36.177Z,11.48
2024-01-21T05:13:04.673Z,2.42
2024-01-21T05:15:32.911Z,5.72
2024-01-21T05:18:01.521Z,5.43
2024-01-21T05:20:29.767Z,2.92
2024-01-21T05:22:57.856Z,6.00
2024-01-21T05:25:26.640Z,7.75
2024-01-21T05:27:54.624Z,7.22
2024-01-21T05:30:23.152Z,10.18
2024-01-21T05:32:52.384Z,5.53
2024-01-21T05:35:20.802Z,6.70
2024-01-21T05:37:50.228Z,12.98
2024-01-21T05:40:18.566Z,7.85
2024-01-21T05:42:46.821Z,10.13
2024-01-21T05:45:14.845Z,8.15
2024-01-21T05:47:43.389Z,6.43
2024-01-21T05:50:11.415Z,3.33
2024-01-21T05:52:39.367Z,2.50
2024-01-21T05:55:08.111Z,4.82
2024-01-21T05:57:36.209Z,6.68
2024-01-21T06:00:04.363Z,5.00
2024-01-21T06:02:40.426Z,3.60
2024-01-21T06:05:08.677Z,3.22
2024-01-21T06:07:36.603Z,4.05
2024-01-21T06:10:05.168Z,1.70
2024-01-21T06:12:33.781Z,8.05
2024-01-21T06:15:02.294Z,5.43
2024-01-21T06:17:30.328Z,9.38
2024-01-21T06:19:58.567Z,6.65
2024-01-21T06:22:26.492Z,3.28
2024-01-21T06:24:54.444Z,4.37
2024-01-21T06:27:22.843Z,3.95
2024-01-21T06:29:50.910Z,4.00
2024-01-21T06:32:18.929Z,2.40
2024-01-21T06:34:47.398Z,6.35
2024-01-21T06:37:15.763Z,4.50
2024-01-21T06:39:54.201Z,8.68
2024-01-21T06:42:26.052Z,6.72
2024-01-21T06:44:53.921Z,5.40
2024-01-21T06:47:21.918Z,11.93
2024-01-21T06:49:50.399Z,7.65
2024-01-21T06:52:18.735Z,9.40
2024-01-21T06:54:47.095Z,4.15
2024-01-21T06:57:15.418Z,5.85
2024-01-21T06:59:43.646Z,8.10
2024-01-21T07:02:12.709Z,8.32
2024-01-21T07:04:41.109Z,8.55
2024-01-21T07:07:09.846Z,7.82
2024-01-21T07:09:42.008Z,9.05
2024-01-21T07:12:10.278Z,5.12
2024-01-21T07:14:38.332Z,9.05
2024-01-21T07:17:06.611Z,15.20
2024-01-21T07:19:35.584Z,18.77
2024-01-21T07:22:04.081Z,14.68
2024-01-21T07:24:32.248Z,18.12
2024-01-21T07:27:00.784Z,7.25
2024-01-21T07:29:31.191Z,6.00
2024-01-21T07:31:59.534Z,10.00
2024-01-21T07:34:29.175Z,5.18
2024-01-21T07:36:57.680Z,3.85
2024-01-21T07:39:26.362Z,11.90
2024-01-21T07:41:55.534Z,4.53
2024-01-21T07:44:23.554Z,9.75
2024-01-21T07:46:51.867Z,3.67
2024-01-21T07:49:20.283Z,4.28
2024-01-21T07:51:48.549Z,6.10
2024-01-21T07:54:16.885Z,4.22
2024-01-21T07:56:45.356Z,3.45
2024-01-21T07:59:14.368Z,6.37
2024-01-21T08:01:42.706Z,6.65
2024-01-21T08:04:11.209Z,4.85
2024-01-21T08:06:39.668Z,3.17
2024-01-21T08:09:07.609Z,6.57
2024-01-21T08:11:37.091Z,3.85
2024-01-21T08:14:05.268Z,10.05
2024-01-21T08:16:33.464Z,7.95
2024-01-21T08:19:02.730Z,8.20
2024-01-21T08:21:31.316Z,4.45
2024-01-21T08:24:00.169Z,3.70
2024-01-21T08:26:28.720Z,3.42
2024-01-21T08:28:56.806Z,3.72
2024-01-21T08:31:24.888Z,11.10
2024-01-21T08:33:53.649Z,6.18
2024-01-21T08:36:22.258Z,6.53
2024-01-21T08:38:52.532Z,5.43
2024-01-21T08:41:22.052Z,9.65
2024-01-21T08:43:52.483Z,5.72
2024-01-21T08:46:20.924Z,8.52
2024-01-21T08:48:49.056Z,5.90
2024-01-21T08:51:21.132Z,5.68
2024-01-21T08:53:56.530Z,4.18
2024-01-21T08:56:26.540Z,4.80
2024-01-21T08:58:55.066Z,10.40
2024-01-21T09:01:24.707Z,6.85
2024-01-21T09:03:52.832Z,10.65
2024-01-21T09:06:21.350Z,7.68
2024-01-21T09:08:53.307Z,8.98
2024-01-21T09:11:22.377Z,9.85
2024-01-21T09:13:50.817Z,9.05
2024-01-21T09:16:20.706Z,8.85
2024-01-21T09:18:49.595Z,6.95
2024-01-21T09:21:26.731Z,11.07
2024-01-21T09:24:02.390Z,6.15
2024-01-21T09:26:30.562Z,12.77
2024-01-21T09:28:59.048Z,8.75
2024-01-21T09:31:27.597Z,8.77
2024-01-21T09:33:57.894Z,6.70
2024-01-21T09:36:26.441Z,10.38
2024-01-21T09:38:55.802Z,10.30
2024-01-21T09:41:39.377Z,6.10
2024-01-21T09:44:08.289Z,7.68
2024-01-21T09:46:36.468Z,11.50
2024-01-21T09:49:05.582Z,8.55
2024-01-21T09:51:38.299Z,10.35
2024-01-21T09:54:07.909Z,8.77
2024-01-21T09:56:37.784Z,7.35
2024-01-21T09:59:09.894Z,13.88
2024-01-21T10:01:42.359Z,8.57
2024-01-21T10:04:13.300Z,7.62
2024-01-21T10:06:42.047Z,8.88
2024-01-21T10:09:19.692Z,14.95
2024-01-21T10:11:58.130Z,9.10
2024-01-21T10:14:27.758Z,10.85
2024-01-21T10:17:00.166Z,12.85
2024-01-21T10:19:35.462Z,7.68
2024-01-21T10:22:17.604Z,10.98
2024-01-21T10:24:48.170Z,15.02
2024-01-21T10:27:17.157Z,13.00
2024-01-21T10:29:46.831Z,9.57
2024-01-21T10:32:16.939Z,14.48
2024-01-21T10:34:50.416Z,7.55
2024-01-21T10:37:21.882Z,9.07
2024-01-21T10:39:51.004Z,8.93
2024-01-21T10:42:22.066Z,8.32
2024-01-21T10:44:51.254Z,10.00
2024-01-21T10:47:21.421Z,8.77
2024-01-21T10:49:50.494Z,11.40
2024-01-21T10:52:20.769Z,6.10
2024-01-21T10:54:49.384Z,7.53
2024-01-21T10:57:19.127Z,10.20
2024-01-21T10:59:51.036Z,6.47
2024-01-21T11:02:20.934Z,7.22
2024-01-21T11:04:49.377Z,5.18
2024-01-21T11:07:19.334Z,9.35
2024-01-21T11:09:49.549Z,6.07
2024-01-21T11:12:18.344Z,5.45
2024-01-21T11:14:47.685Z,8.07
2024-01-21T11:17:19.230Z,7.70
2024-01-21T11:19:50.855Z,5.97
2024-01-21T11:22:25.446Z,7.32
2024-01-21T11:24:55.719Z,8.60
2024-01-21T11:27:31.124Z,8.75
2024-01-21T11:30:02.154Z,5.68
2024-01-21T11:32:32.609Z,6.25
2024-01-21T11:35:14.126Z,7.95
2024-01-21T11:37:42.392Z,9.82
2024-01-21T11:40:11.933Z,8.00
2024-01-21T11:42:40.679Z,7.75
2024-01-21T11:45:11.182Z,9.40
2024-01-21T11:47:41.759Z,15.05
2024-01-21T11:50:11.246Z,9.13
2024-01-21T11:52:40.340Z,5.45
2024-01-21T11:55:09.030Z,8.23
2024-01-21T11:57:37.261Z,10.27
2024-01-21T12:00:06.377Z,6.90
2024-01-21T12:02:40.455Z,4.68
2024-01-21T12:05:09.373Z,4.35
2024-01-21T12:07:37.681Z,7.05
2024-01-21T12:10:06.323Z,8.05
2024-01-21T12:12:34.995Z,10.13
2024-01-21T12:15:04.063Z,4.50
2024-01-21T12:17:32.720Z,6.25
2024-01-21T12:20:01.422Z,6.93
2024-01-21T12:22:40.646Z,7.47
2024-01-21T12:25:09.857Z,7.55
2024-01-21T12:27:42.502Z,7.30
2024-01-21T12:30:14.857Z,5.53
2024-01-21T12:32:53.436Z,6.53
2024-01-21T12:35:27.482Z,5.43
2024-01-21T12:37:55.815Z,8.50
2024-01-21T12:40:24.858Z,8.50
2024-01-21T12:42:54.067Z,4.32
2024-01-21T12:45:23.469Z,5.95
2024-01-21T12:47:53.099Z,7.75
2024-01-21T12:50:22.782Z,6.32
2024-01-21T12:52:51.241Z,10.80
2024-01-21T12:55:19.259Z,12.18
2024-01-21T12:57:47.452Z,6.40
2024-01-21T13:00:15.945Z,9.55
2024-01-21T13:02:45.225Z,10.10
2024-01-21T13:05:14.558Z,8.68
2024-01-21T13:07:42.790Z,7.68
2024-01-21T13:10:11.159Z,10.48
2024-01-21T13:12:39.909Z,6.82
2024-01-21T13:15:09.637Z,6.00
2024-01-21T13:17:38.116Z,9.38
2024-01-21T13:20:07.732Z,5.90
2024-01-21T13:22:38.805Z,14.35
2024-01-21T13:25:07.765Z,7.25
2024-01-21T13:27:44.480Z,5.68
2024-01-21T13:30:32.393Z,3.90
2024-01-21T13:33:00.934Z,9.43
2024-01-21T13:35:30.007Z,10.35
2024-01-21T13:37:58.749Z,5.90
2024-01-21T13:40:27.477Z,7.12
2024-01-21T13:42:55.921Z,6.75
2024-01-21T13:45:24.758Z,7.93
2024-01-21T13:47:53.223Z,7.78
2024-01-21T13:50:26.281Z,12.15
2024-01-21T13:53:00.229Z,9.88
2024-01-21T13:55:31.958Z,6.50
2024-01-21T13:58:03.552Z,5.57
2024-01-21T14:00:34.655Z,6.85
2024-01-21T14:03:06.358Z,11.85
2024-01-21T14:05:39.746Z,8.60
2024-01-21T14:08:09.196Z,6.45
2024-01-21T14:10:42.053Z,7.00
2024-01-21T14:13:11.292Z,7.72
2024-01-21T14:15:40.922Z,9.90
2024-01-21T14:18:11.640Z,11.48
2024-01-21T14:20:42.717Z,8.30
2024-01-21T14:23:17.802Z,13.57
2024-01-21T14:28:21.372Z,11.43
2024-01-21T14:30:54.901Z,19.50
2024-01-21T14:33:23.741Z,14.27
2024-01-21T14:35:54.630Z,13.60
2024-01-21T14:38:28.378Z,12.57
2024-01-21T14:41:03.665Z,11.77
2024-01-21T14:43:37.434Z,8.63
2024-01-21T14:46:13.268Z,15.00
2024-01-21T14:48:46.650Z,12.32
2024-01-21T14:51:20.411Z,17.67
2024-01-21T14:53:50.142Z,18.02
2024-01-21T14:56:22.554Z,15.63
2024-01-21T14:58:59.281Z,11.65
2024-01-21T15:01:30.712Z,13.20
2024-01-21T15:04:04.078Z,13.20
2024-01-21T15:06:34.511Z,13.38
2024-01-21T15:09:07.134Z,19.23
2024-01-21T15:11:41.683Z,13.85
2024-01-21T15:14:26.000Z,13.15
2024-01-21T15:16:59.245Z,10.77
2024-01-21T15:19:32.655Z,11.75
2024-01-21T15:22:05.909Z,23.37
2024-01-21T15:24:39.507Z,14.55
2024-01-21T15:27:12.782Z,16.00
2024-01-21T15:29:45.646Z,14.82
2024-01-21T15:32:17.772Z,9.27
2024-01-21T15:34:49.343Z,11.15
2024-01-21T15:37:21.951Z,12.48
2024-01-21T15:39:54.425Z,13.15
2024-01-21T15:42:28.321Z,16.73
2024-01-21T15:44:58.714Z,11.98
2024-01-21T15:47:33.694Z,12.10
2024-01-21T15:50:06.688Z,15.40
2024-01-21T15:52:40.741Z,19.45
2024-01-21T15:55:14.610Z,15.52
2024-01-21T15:57:47.770Z,24.37
2024-01-21T16:00:20.890Z,16.87
2024-01-21T16:02:53.616Z,8.27
2024-01-21T16:05:23.020Z,9.82
2024-01-21T16:07:53.650Z,7.90
2024-01-21T16:10:22.436Z,11.48
2024-01-21T16:12:54.241Z,8.90
2024-01-21T16:15:22.903Z,7.82
2024-01-21T16:17:52.100Z,10.60
2024-01-21T16:20:24.871Z,10.45
2024-01-21T16:22:55.149Z,19.45
2024-01-21T16:25:26.382Z,20.35
2024-01-21T16:27:55.401Z,15.65
2024-01-21T16:30:26.125Z,17.83
2024-01-21T16:32:54.705Z,14.77
2024-01-21T16:35:24.242Z,17.58
2024-01-21T16:37:52.673Z,15.55
2024-01-21T16:40:21.721Z,17.60
2024-01-21T16:42:50.086Z,5.85
2024-01-21T16:45:21.606Z,9.32
2024-01-21T16:47:51.052Z,6.20
2024-01-21T16:50:19.958Z,6.70
2024-01-21T16:52:56.538Z,4.90
2024-01-21T16:55:25.133Z,5.15
2024-01-21T16:57:53.257Z,13.27
2024-01-21T17:00:24.397Z,11.20
2024-01-21T17:02:55.805Z,13.32
2024-01-21T17:05:24.753Z,12.73
2024-01-21T17:07:53.569Z,16.67
2024-01-21T17:10:55.205Z,14.50
2024-01-21T17:13:24.052Z,14.40
2024-01-21T17:15:52.222Z,18.90
2024-01-21T17:18:23.292Z,23.95
2024-01-21T17:20:53.553Z,22.62
2024-01-21T17:23:21.927Z,16.35
2024-01-21T17:25:50.573Z,18.20
2024-01-21T17:28:19.182Z,16.87
2024-01-21T17:30:48.378Z,24.10
2024-01-21T17:33:17.629Z,15.88
2024-01-21T17:35:46.676Z,12.65
2024-01-21T17:38:14.992Z,18.27
2024-01-21T17:40:42.973Z,23.30
2024-01-21T17:43:11.369Z,17.70
2024-01-21T17:45:39.720Z,10.27
2024-01-21T17:48:08.670Z,15.10
2024-01-21T17:50:37.139Z,15.23
2024-01-21T17:53:05.722Z,13.95
2024-01-21T17:55:33.732Z,12.37
2024-01-21T17:58:02.511Z,17.62
2024-01-21T18:00:30.771Z,17.52
2024-01-21T18:02:59.355Z,16.33
2024-01-21T18:05:28.225Z,10.10
2024-01-21T18:08:00.613Z,11.90
2024-01-21T18:10:29.394Z,13.52
2024-01-21T18:12:57.682Z,11.38
2024-01-21T18:15:25.967Z,11.98
2024-01-21T18:17:54.300Z,16.08
2024-01-21T18:20:22.812Z,15.43
2024-01-21T18:22:52.135Z,15.75
2024-01-21T18:25:20.439Z,15.55
2024-01-21T18:27:48.880Z,19.87
2024-01-21T18:30:16.938Z,8.50
2024-01-21T18:32:46.768Z,9.65
2024-01-21T18:35:16.282Z,13.52
2024-01-21T18:37:44.527Z,12.57
2024-01-21T18:40:13.476Z,14.35
2024-01-21T18:42:41.522Z,13.30
2024-01-21T18:45:10.408Z,7.95
2024-01-21T18:47:39.627Z,14.32
2024-01-21T18:50:08.412Z,12.88
2024-01-21T18:52:36.511Z,12.05
2024-01-21T18:55:05.106Z,14.93
2024-01-21T18:57:33.141Z,13.07
2024-01-21T19:00:01.553Z,21.08
2024-01-21T19:02:30.288Z,26.90
2024-01-21T19:04:58.560Z,29.02
2024-01-21T19:07:32.665Z,26.62
2024-01-21T19:12:33.883Z,18.27
2024-01-21T19:15:02.907Z,36.65
2024-01-21T19:17:31.304Z,17.17
2024-01-21T19:20:01.112Z,16.52
2024-01-21T19:22:30.738Z,31.02
2024-01-21T19:24:58.851Z,27.20
2024-01-21T19:27:27.859Z,23.17
2024-01-21T19:29:57.273Z,27.35
2024-01-21T19:32:25.596Z,46.00
2024-01-21T19:34:54.815Z,28.65
2024-01-21T19:37:23.216Z,33.28
2024-01-21T19:39:51.532Z,40.45
2024-01-21T19:42:19.704Z,48.33
2024-01-21T19:44:50.825Z,23.65
2024-01-21T19:47:19.448Z,10.00
2024-01-21T19:49:47.989Z,26.00
2024-01-21T19:52:17.651Z,9.20
2024-01-21T19:54:45.577Z,15.15
2024-01-21T19:57:14.825Z,23.00
2024-01-21T19:59:42.821Z,16.65
2024-01-21T20:02:12.937Z,16.75
2024-01-21T20:04:41.367Z,16.33
2024-01-21T20:07:09.708Z,28.62
2024-01-21T20:09:37.762Z,22.33
2024-01-21T20:12:06.420Z,25.88
2024-01-21T20:14:34.448Z,12.57
2024-01-21T20:17:02.789Z,12.52
2024-01-21T20:19:31.182Z,16.02
2024-01-21T20:21:59.231Z,21.15
2024-01-21T20:24:27.493Z,25.10
2024-01-21T20:26:55.994Z,16.58
2024-01-21T20:29:24.648Z,24.30
2024-01-21T20:31:52.767Z,20.88
2024-01-21T20:34:21.337Z,15.30
2024-01-21T20:36:49.490Z,19.52
2024-01-21T20:39:17.788Z,26.42
2024-01-21T20:41:46.380Z,16.85
2024-01-21T20:44:14.751Z,9.55
2024-01-21T20:46:42.772Z,24.80
2024-01-21T20:49:11.386Z,29.58
2024-01-21T20:51:39.601Z,34.35
2024-01-21T20:54:08.944Z,21.23
2024-01-21T20:56:37.604Z,23.40
2024-01-21T20:59:05.629Z,18.00
2024-01-21T21:01:35.491Z,16.55
2024-01-21T21:04:04.193Z,14.02
2024-01-21T21:06:32.649Z,19.05
2024-01-21T21:09:01.024Z,15.60
2024-01-21T21:11:29.574Z,18.15
2024-01-21T21:13:58.040Z,15.52
2024-01-21T21:16:26.875Z,16.83
2024-01-21T21:18:56.233Z,8.85
2024-01-21T21:21:24.382Z,14.55
2024-01-21T21:23:52.421Z,13.38
2024-01-21T21:26:20.698Z,9.75
2024-01-21T21:28:48.681Z,15.27
2024-01-21T21:31:16.953Z,18.33
2024-01-21T21:33:45.865Z,13.20
2024-01-21T21:36:15.848Z,17.12
2024-01-21T21:38:47.002Z,12.20
2024-01-21T21:41:15.352Z,9.35
2024-01-21T21:43:43.446Z,12.45
2024-01-21T21:46:11.693Z,18.20
2024-01-21T21:48:40.490Z,11.05
2024-01-21T21:51:08.880Z,12.68
2024-01-21T21:53:36.913Z,17.85
2024-01-21T21:56:06.111Z,18.33
2024-01-21T21:58:34.135Z,12.07
2024-01-21T22:01:02.414Z,10.45
2024-01-21T22:03:33.173Z,10.73
2024-01-21T22:06:03.998Z,19.65
2024-01-21T22:08:34.098Z,16.65
2024-01-21T22:11:03.571Z,11.98
2024-01-21T22:13:32.867Z,10.77
2024-01-21T22:16:00.890Z,10.52
2024-01-21T22:18:29.277Z,10.30
2024-01-21T22:20:57.754Z,16.87
2024-01-21T22:23:26.228Z,15.70
2024-01-21T22:25:55.397Z,13.73
2024-01-21T22:28:23.602Z,24.17
2024-01-21T22:30:53.760Z,10.65
2024-01-21T22:33:21.843Z,16.15
2024-01-21T22:35:50.239Z,9.95
2024-01-21T22:38:18.274Z,10.73
2024-01-21T22:40:46.196Z,14.25
2024-01-21T22:43:14.691Z,11.15
2024-01-21T22:45:43.023Z,12.43
2024-01-21T22:48:11.340Z,11.15
2024-01-21T22:50:40.633Z,15.98
2024-01-21T22:53:09.227Z,8.98
2024-01-21T22:55:37.209Z,10.40
2024-01-21T22:58:05.904Z,5.35
2024-01-21T23:00:34.350Z,12.88
2024-01-21T23:03:02.603Z,10.75
2024-01-21T23:05:30.702Z,13.60
2024-01-21T23:07:58.978Z,9.10
2024-01-21T23:10:27.225Z,20.67
2024-01-21T23:12:55.219Z,11.00
2024-01-21T23:15:23.612Z,13.13
2024-01-21T23:17:51.688Z,11.82
2024-01-21T23:20:19.914Z,8.27
2024-01-21T23:22:48.254Z,15.63
2024-01-21T23:25:16.327Z,13.10
2024-01-21T23:27:44.241Z,17.23
2024-01-21T23:30:12.654Z,12.95
2024-01-21T23:32:41.029Z,11.75
2024-01-21T23:35:09.127Z,12.68
2024-01-21T23:37:37.424Z,11.77
2024-01-21T23:40:06.104Z,11.63
2024-01-21T23:42:34.195Z,16.12
2024-01-21T23:45:02.818Z,10.32
2024-01-21T23:47:30.922Z,10.38
2024-01-21T23:49:58.917Z,14.55
2024-01-21T23:52:27.096Z,12.32
2024-01-21T23:54:55.798Z,14.20
2024-01-21T23:57:23.680Z,12.85
2024-01-21T23:59:52.573Z,18.52
